sensor_id;sensor_type;location;lat;lon;timestamp;P1;durP1;ratioP1;P2;durP2;ratioP2
75984;SDS011;65033;44.660;37.758;2023-02-13T00:00:35;2.70;;;2.10;;
75984;SDS011;65033;44.660;37.758;2023-02-13T00:01:40;2.63;;;2.28;;
75984;SDS011;65033;44.660;37.758;2023-02-13T00:02:44;2.60;;;1.98;;
75984;SDS011;65033;44.660;37.758;2023-02-13T00:03:47;2.50;;;2.28;;
75984;SDS011;65033;44.660;37.758;2023-02-13T00:04:52;2.22;;;2.03;;
75984;SDS011;65033;44.660;37.758;2023-02-13T00:05:55;2.97;;;2.40;;
75984;SDS011;65033;44.660;37.758;2023-02-13T00:06:58;2.55;;;2.30;;
75984;SDS011;65033;44.660;37.758;2023-02-13T00:08:02;2.50;;;2.22;;
75984;SDS011;65033;44.660;37.758;2023-02-13T00:09:05;2.67;;;2.03;;
75984;SDS011;65033;44.660;37.758;2023-02-13T00:10:12;3.05;;;2.10;;
75984;SDS011;65033;44.660;37.758;2023-02-13T00:11:15;2.00;;;1.70;;
75984;SDS011;65033;44.660;37.758;2023-02-13T00:12:18;2.38;;;2.10;;
75984;SDS011;65033;44.660;37.758;2023-02-13T00:13:22;3.50;;;2.20;;
75984;SDS011;65033;44.660;37.758;2023-02-13T00:14:25;2.40;;;1.98;;
75984;SDS011;65033;44.660;37.758;2023-02-13T00:15:28;2.70;;;1.92;;
75984;SDS011;65033;44.660;37.758;2023-02-13T00:16:31;2.55;;;2.13;;
75984;SDS011;65033;44.660;37.758;2023-02-13T00:17:35;3.75;;;2.20;;
75984;SDS011;65033;44.660;37.758;2023-02-13T00:18:38;2.97;;;2.42;;
75984;SDS011;65033;44.660;37.758;2023-02-13T00:19:41;3.00;;;2.33;;
75984;SDS011;65033;44.660;37.758;2023-02-13T00:20:55;2.22;;;1.95;;
75984;SDS011;65033;44.660;37.758;2023-02-13T00:21:59;3.25;;;2.33;;
75984;SDS011;65033;44.660;37.758;2023-02-13T00:23:02;3.33;;;2.00;;
75984;SDS011;65033;44.660;37.758;2023-02-13T00:24:05;2.90;;;2.22;;
75984;SDS011;65033;44.660;37.758;2023-02-13T00:25:09;2.50;;;1.83;;
75984;SDS011;65033;44.660;37.758;2023-02-13T00:26:13;2.40;;;2.20;;
75984;SDS011;65033;44.660;37.758;2023-02-13T00:27:18;2.67;;;2.05;;
75984;SDS011;65033;44.660;37.758;2023-02-13T00:28:22;2.42;;;2.22;;
75984;SDS011;65033;44.660;37.758;2023-02-13T00:29:25;2.70;;;2.10;;
75984;SDS011;65033;44.660;37.758;2023-02-13T00:30:28;3.70;;;2.20;;
75984;SDS011;65033;44.660;37.758;2023-02-13T00:31:32;2.65;;;2.15;;
75984;SDS011;65033;44.660;37.758;2023-02-13T00:32:35;2.80;;;2.13;;
75984;SDS011;65033;44.660;37.758;2023-02-13T00:33:38;3.33;;;2.10;;
75984;SDS011;65033;44.660;37.758;2023-02-13T00:34:42;2.70;;;2.05;;
75984;SDS011;65033;44.660;37.758;2023-02-13T00:35:47;2.65;;;2.08;;
75984;SDS011;65033;44.660;37.758;2023-02-13T00:36:50;2.47;;;2.10;;
75984;SDS011;65033;44.660;37.758;2023-02-13T00:37:53;3.28;;;2.00;;
75984;SDS011;65033;44.660;37.758;2023-02-13T00:38:58;2.88;;;1.95;;
75984;SDS011;65033;44.660;37.758;2023-02-13T00:40:01;2.20;;;1.90;;
75984;SDS011;65033;44.660;37.758;2023-02-13T00:41:05;2.72;;;2.13;;
75984;SDS011;65033;44.660;37.758;2023-02-13T00:42:09;2.75;;;2.15;;
75984;SDS011;65033;44.660;37.758;2023-02-13T00:43:12;2.58;;;1.90;;
75984;SDS011;65033;44.660;37.758;2023-02-13T00:44:15;2.60;;;1.95;;
75984;SDS011;65033;44.660;37.758;2023-02-13T00:45:18;2.35;;;2.00;;
75984;SDS011;65033;44.660;37.758;2023-02-13T00:46:22;3.25;;;2.20;;
75984;SDS011;65033;44.660;37.758;2023-02-13T00:47:27;3.63;;;2.20;;
75984;SDS011;65033;44.660;37.758;2023-02-13T00:48:30;2.55;;;2.17;;
75984;SDS011;65033;44.660;37.758;2023-02-13T00:49:35;3.40;;;2.05;;
75984;SDS011;65033;44.660;37.758;2023-02-13T00:50:38;3.42;;;2.40;;
75984;SDS011;65033;44.660;37.758;2023-02-13T00:51:45;2.67;;;2.15;;
75984;SDS011;65033;44.660;37.758;2023-02-13T00:52:48;3.22;;;2.45;;
75984;SDS011;65033;44.660;37.758;2023-02-13T00:53:53;2.72;;;2.13;;
75984;SDS011;65033;44.660;37.758;2023-02-13T00:54:57;2.53;;;2.20;;
75984;SDS011;65033;44.660;37.758;2023-02-13T00:56:00;2.65;;;1.95;;
75984;SDS011;65033;44.660;37.758;2023-02-13T00:57:03;2.45;;;1.77;;
75984;SDS011;65033;44.660;37.758;2023-02-13T00:58:06;2.42;;;2.13;;
75984;SDS011;65033;44.660;37.758;2023-02-13T00:59:10;2.45;;;1.92;;
75984;SDS011;65033;44.660;37.758;2023-02-13T01:00:13;2.20;;;1.90;;
75984;SDS011;65033;44.660;37.758;2023-02-13T01:01:18;2.42;;;2.03;;
75984;SDS011;65033;44.660;37.758;2023-02-13T01:02:22;2.28;;;1.98;;
75984;SDS011;65033;44.660;37.758;2023-02-13T01:03:26;2.50;;;2.00;;
75984;SDS011;65033;44.660;37.758;2023-02-13T01:04:29;2.83;;;2.28;;
75984;SDS011;65033;44.660;37.758;2023-02-13T01:05:32;3.08;;;2.20;;
75984;SDS011;65033;44.660;37.758;2023-02-13T01:06:36;3.50;;;2.08;;
75984;SDS011;65033;44.660;37.758;2023-02-13T01:07:41;3.08;;;2.10;;
75984;SDS011;65033;44.660;37.758;2023-02-13T01:08:46;3.55;;;2.40;;
75984;SDS011;65033;44.660;37.758;2023-02-13T01:09:50;2.88;;;2.20;;
75984;SDS011;65033;44.660;37.758;2023-02-13T01:10:54;3.00;;;2.17;;
75984;SDS011;65033;44.660;37.758;2023-02-13T01:11:58;1.90;;;1.63;;
75984;SDS011;65033;44.660;37.758;2023-02-13T01:13:01;3.25;;;2.05;;
75984;SDS011;65033;44.660;37.758;2023-02-13T01:14:04;2.65;;;1.90;;
75984;SDS011;65033;44.660;37.758;2023-02-13T01:15:08;2.65;;;2.10;;
75984;SDS011;65033;44.660;37.758;2023-02-13T01:16:12;2.30;;;1.92;;
75984;SDS011;65033;44.660;37.758;2023-02-13T01:17:17;2.33;;;2.05;;
75984;SDS011;65033;44.660;37.758;2023-02-13T01:18:20;2.55;;;1.80;;
75984;SDS011;65033;44.660;37.758;2023-02-13T01:19:23;2.58;;;2.30;;
75984;SDS011;65033;44.660;37.758;2023-02-13T01:20:27;3.15;;;2.15;;
75984;SDS011;65033;44.660;37.758;2023-02-13T01:21:31;2.67;;;1.80;;
75984;SDS011;65033;44.660;37.758;2023-02-13T01:22:34;2.58;;;2.00;;
75984;SDS011;65033;44.660;37.758;2023-02-13T01:23:39;3.17;;;1.98;;
75984;SDS011;65033;44.660;37.758;2023-02-13T01:24:42;3.05;;;1.90;;
75984;SDS011;65033;44.660;37.758;2023-02-13T01:25:45;3.13;;;1.90;;
75984;SDS011;65033;44.660;37.758;2023-02-13T01:26:48;2.72;;;2.13;;
75984;SDS011;65033;44.660;37.758;2023-02-13T01:27:53;2.50;;;2.08;;
75984;SDS011;65033;44.660;37.758;2023-02-13T01:28:56;2.85;;;2.13;;
75984;SDS011;65033;44.660;37.758;2023-02-13T01:29:59;2.92;;;2.20;;
75984;SDS011;65033;44.660;37.758;2023-02-13T01:31:03;2.67;;;2.20;;
75984;SDS011;65033;44.660;37.758;2023-02-13T01:32:07;2.38;;;1.45;;
75984;SDS011;65033;44.660;37.758;2023-02-13T01:33:10;2.75;;;1.90;;
75984;SDS011;65033;44.660;37.758;2023-02-13T01:34:14;2.30;;;1.98;;
75984;SDS011;65033;44.660;37.758;2023-02-13T01:35:17;2.88;;;2.03;;
75984;SDS011;65033;44.660;37.758;2023-02-13T01:36:20;2.40;;;1.83;;
75984;SDS011;65033;44.660;37.758;2023-02-13T01:37:23;2.10;;;1.90;;
75984;SDS011;65033;44.660;37.758;2023-02-13T01:38:26;2.35;;;2.15;;
75984;SDS011;65033;44.660;37.758;2023-02-13T01:39:31;2.25;;;1.90;;
75984;SDS011;65033;44.660;37.758;2023-02-13T01:40:35;2.10;;;1.85;;
75984;SDS011;65033;44.660;37.758;2023-02-13T01:41:38;2.85;;;1.98;;
75984;SDS011;65033;44.660;37.758;2023-02-13T01:42:41;2.63;;;2.05;;
75984;SDS011;65033;44.660;37.758;2023-02-13T01:43:46;3.05;;;2.10;;
75984;SDS011;65033;44.660;37.758;2023-02-13T01:44:51;2.65;;;2.00;;
75984;SDS011;65033;44.660;37.758;2023-02-13T01:45:56;3.08;;;2.17;;
75984;SDS011;65033;44.660;37.758;2023-02-13T01:46:59;2.33;;;1.88;;
75984;SDS011;65033;44.660;37.758;2023-02-13T01:48:03;2.53;;;2.00;;
75984;SDS011;65033;44.660;37.758;2023-02-13T01:49:11;3.40;;;2.10;;
75984;SDS011;65033;44.660;37.758;2023-02-13T01:50:20;2.60;;;2.13;;
75984;SDS011;65033;44.660;37.758;2023-02-13T01:51:28;2.35;;;1.65;;
75984;SDS011;65033;44.660;37.758;2023-02-13T01:52:34;2.80;;;2.00;;
75984;SDS011;65033;44.660;37.758;2023-02-13T01:53:40;2.40;;;1.95;;
75984;SDS011;65033;44.660;37.758;2023-02-13T01:54:48;2.13;;;1.80;;
75984;SDS011;65033;44.660;37.758;2023-02-13T01:55:53;2.63;;;1.80;;
75984;SDS011;65033;44.660;37.758;2023-02-13T01:57:01;2.13;;;1.92;;
75984;SDS011;65033;44.660;37.758;2023-02-13T01:58:07;2.65;;;2.10;;
75984;SDS011;65033;44.660;37.758;2023-02-13T01:59:12;2.35;;;1.95;;
75984;SDS011;65033;44.660;37.758;2023-02-13T02:00:19;2.65;;;1.95;;
75984;SDS011;65033;44.660;37.758;2023-02-13T02:01:24;2.03;;;1.60;;
75984;SDS011;65033;44.660;37.758;2023-02-13T02:02:30;2.38;;;1.88;;
75984;SDS011;65033;44.660;37.758;2023-02-13T02:04:46;2.25;;;1.73;;
75984;SDS011;65033;44.660;37.758;2023-02-13T02:05:53;3.13;;;2.10;;
75984;SDS011;65033;44.660;37.758;2023-02-13T02:07:00;2.25;;;2.05;;
75984;SDS011;65033;44.660;37.758;2023-02-13T02:09:13;2.72;;;1.90;;
75984;SDS011;65033;44.660;37.758;2023-02-13T02:10:21;2.88;;;2.13;;
75984;SDS011;65033;44.660;37.758;2023-02-13T02:11:25;2.35;;;1.70;;
75984;SDS011;65033;44.660;37.758;2023-02-13T02:12:35;2.17;;;1.80;;
75984;SDS011;65033;44.660;37.758;2023-02-13T02:13:45;2.58;;;1.73;;
75984;SDS011;65033;44.660;37.758;2023-02-13T02:14:48;2.83;;;2.03;;
75984;SDS011;65033;44.660;37.758;2023-02-13T02:15:56;2.25;;;1.83;;
75984;SDS011;65033;44.660;37.758;2023-02-13T02:16:59;2.83;;;1.92;;
75984;SDS011;65033;44.660;37.758;2023-02-13T02:18:03;3.40;;;2.05;;
75984;SDS011;65033;44.660;37.758;2023-02-13T02:19:09;2.85;;;1.85;;
75984;SDS011;65033;44.660;37.758;2023-02-13T02:20:22;2.33;;;1.75;;
75984;SDS011;65033;44.660;37.758;2023-02-13T02:23:26;2.15;;;1.77;;
75984;SDS011;65033;44.660;37.758;2023-02-13T02:24:46;1.88;;;1.52;;
75984;SDS011;65033;44.660;37.758;2023-02-13T02:29:46;3.03;;;1.85;;
75984;SDS011;65033;44.660;37.758;2023-02-13T02:31:18;2.30;;;1.73;;
75984;SDS011;65033;44.660;37.758;2023-02-13T02:32:53;2.13;;;1.80;;
75984;SDS011;65033;44.660;37.758;2023-02-13T02:35:18;2.22;;;1.67;;
75984;SDS011;65033;44.660;37.758;2023-02-13T02:36:33;2.20;;;1.85;;
75984;SDS011;65033;44.660;37.758;2023-02-13T02:37:50;2.40;;;1.52;;
75984;SDS011;65033;44.660;37.758;2023-02-13T02:39:05;2.25;;;1.63;;
75984;SDS011;65033;44.660;37.758;2023-02-13T02:40:19;2.80;;;1.80;;
75984;SDS011;65033;44.660;37.758;2023-02-13T02:41:31;2.10;;;1.80;;
75984;SDS011;65033;44.660;37.758;2023-02-13T02:42:52;2.45;;;1.60;;
75984;SDS011;65033;44.660;37.758;2023-02-13T02:44:10;1.98;;;1.60;;
75984;SDS011;65033;44.660;37.758;2023-02-13T02:45:21;2.25;;;1.80;;
75984;SDS011;65033;44.660;37.758;2023-02-13T02:46:30;2.33;;;1.88;;
75984;SDS011;65033;44.660;37.758;2023-02-13T02:47:41;1.63;;;1.50;;
75984;SDS011;65033;44.660;37.758;2023-02-13T02:49:13;1.77;;;1.48;;
75984;SDS011;65033;44.660;37.758;2023-02-13T02:50:37;2.50;;;1.80;;
75984;SDS011;65033;44.660;37.758;2023-02-13T02:51:47;2.95;;;1.70;;
75984;SDS011;65033;44.660;37.758;2023-02-13T02:53:01;2.38;;;1.63;;
75984;SDS011;65033;44.660;37.758;2023-02-13T02:54:14;2.30;;;1.70;;
75984;SDS011;65033;44.660;37.758;2023-02-13T02:55:45;2.70;;;1.85;;
75984;SDS011;65033;44.660;37.758;2023-02-13T02:56:53;2.70;;;1.80;;
75984;SDS011;65033;44.660;37.758;2023-02-13T02:58:04;2.42;;;1.85;;
75984;SDS011;65033;44.660;37.758;2023-02-13T02:59:34;2.58;;;1.52;;
75984;SDS011;65033;44.660;37.758;2023-02-13T03:00:57;2.45;;;1.73;;
75984;SDS011;65033;44.660;37.758;2023-02-13T03:02:21;2.30;;;1.73;;
75984;SDS011;65033;44.660;37.758;2023-02-13T03:03:44;2.00;;;1.50;;
75984;SDS011;65033;44.660;37.758;2023-02-13T03:05:09;2.50;;;1.73;;
75984;SDS011;65033;44.660;37.758;2023-02-13T03:06:39;2.10;;;1.60;;
75984;SDS011;65033;44.660;37.758;2023-02-13T03:07:47;2.63;;;1.85;;
75984;SDS011;65033;44.660;37.758;2023-02-13T03:08:52;2.35;;;1.83;;
75984;SDS011;65033;44.660;37.758;2023-02-13T03:10:19;2.42;;;2.20;;
75984;SDS011;65033;44.660;37.758;2023-02-13T03:11:48;2.08;;;1.70;;
75984;SDS011;65033;44.660;37.758;2023-02-13T03:13:14;2.25;;;1.70;;
75984;SDS011;65033;44.660;37.758;2023-02-13T03:14:29;2.85;;;1.70;;
75984;SDS011;65033;44.660;37.758;2023-02-13T03:15:33;2.20;;;1.60;;
75984;SDS011;65033;44.660;37.758;2023-02-13T03:17:00;2.67;;;1.92;;
75984;SDS011;65033;44.660;37.758;2023-02-13T03:18:23;4.05;;;1.75;;
75984;SDS011;65033;44.660;37.758;2023-02-13T03:19:54;2.38;;;1.92;;
75984;SDS011;65033;44.660;37.758;2023-02-13T03:21:26;2.83;;;1.70;;
75984;SDS011;65033;44.660;37.758;2023-02-13T03:23:02;2.83;;;1.55;;
75984;SDS011;65033;44.660;37.758;2023-02-13T03:24:16;2.28;;;1.85;;
75984;SDS011;65033;44.660;37.758;2023-02-13T03:25:28;2.13;;;1.77;;
75984;SDS011;65033;44.660;37.758;2023-02-13T03:26:41;2.33;;;1.70;;
75984;SDS011;65033;44.660;37.758;2023-02-13T03:27:53;2.92;;;1.52;;
75984;SDS011;65033;44.660;37.758;2023-02-13T03:29:20;2.67;;;1.80;;
75984;SDS011;65033;44.660;37.758;2023-02-13T03:30:55;2.00;;;1.70;;
75984;SDS011;65033;44.660;37.758;2023-02-13T03:32:05;2.85;;;1.58;;
75984;SDS011;65033;44.660;37.758;2023-02-13T03:33:18;2.00;;;1.60;;
75984;SDS011;65033;44.660;37.758;2023-02-13T03:34:30;2.70;;;1.42;;
75984;SDS011;65033;44.660;37.758;2023-02-13T03:36:00;2.65;;;1.67;;
75984;SDS011;65033;44.660;37.758;2023-02-13T03:37:29;1.40;;;1.20;;
75984;SDS011;65033;44.660;37.758;2023-02-13T03:38:57;3.55;;;1.70;;
75984;SDS011;65033;44.660;37.758;2023-02-13T03:40:05;2.30;;;1.85;;
75984;SDS011;65033;44.660;37.758;2023-02-13T03:41:13;2.28;;;1.60;;
75984;SDS011;65033;44.660;37.758;2023-02-13T03:42:24;2.33;;;1.83;;
75984;SDS011;65033;44.660;37.758;2023-02-13T03:43:35;2.25;;;1.67;;
75984;SDS011;65033;44.660;37.758;2023-02-13T03:44:43;2.38;;;1.83;;
75984;SDS011;65033;44.660;37.758;2023-02-13T03:46:09;1.90;;;1.60;;
75984;SDS011;65033;44.660;37.758;2023-02-13T03:47:13;2.50;;;1.65;;
75984;SDS011;65033;44.660;37.758;2023-02-13T03:48:17;2.30;;;2.03;;
75984;SDS011;65033;44.660;37.758;2023-02-13T03:49:43;2.50;;;1.77;;
75984;SDS011;65033;44.660;37.758;2023-02-13T03:51:07;2.28;;;1.73;;
75984;SDS011;65033;44.660;37.758;2023-02-13T03:52:12;2.05;;;1.60;;
75984;SDS011;65033;44.660;37.758;2023-02-13T03:53:22;2.17;;;1.50;;
75984;SDS011;65033;44.660;37.758;2023-02-13T03:54:29;2.17;;;1.77;;
75984;SDS011;65033;44.660;37.758;2023-02-13T03:55:54;2.42;;;1.70;;
75984;SDS011;65033;44.660;37.758;2023-02-13T03:57:19;2.80;;;1.50;;
75984;SDS011;65033;44.660;37.758;2023-02-13T03:58:43;2.38;;;1.67;;
75984;SDS011;65033;44.660;37.758;2023-02-13T04:00:09;2.42;;;1.60;;
75984;SDS011;65033;44.660;37.758;2023-02-13T04:01:17;2.20;;;1.50;;
75984;SDS011;65033;44.660;37.758;2023-02-13T04:02:24;3.95;;;1.83;;
75984;SDS011;65033;44.660;37.758;2023-02-13T04:03:34;3.10;;;2.15;;
75984;SDS011;65033;44.660;37.758;2023-02-13T04:04:45;16.73;;;13.52;;
75984;SDS011;65033;44.660;37.758;2023-02-13T04:05:53;15.55;;;11.18;;
75984;SDS011;65033;44.660;37.758;2023-02-13T04:07:00;6.53;;;5.43;;
75984;SDS011;65033;44.660;37.758;2023-02-13T04:08:06;3.80;;;2.53;;
75984;SDS011;65033;44.660;37.758;2023-02-13T04:09:11;5.53;;;3.53;;
75984;SDS011;65033;44.660;37.758;2023-02-13T04:10:15;5.45;;;4.47;;
75984;SDS011;65033;44.660;37.758;2023-02-13T04:11:20;6.45;;;5.53;;
75984;SDS011;65033;44.660;37.758;2023-02-13T04:12:34;7.55;;;6.13;;
75984;SDS011;65033;44.660;37.758;2023-02-13T04:13:45;7.97;;;6.38;;
75984;SDS011;65033;44.660;37.758;2023-02-13T04:14:54;9.82;;;6.82;;
75984;SDS011;65033;44.660;37.758;2023-02-13T04:16:05;10.55;;;7.75;;
75984;SDS011;65033;44.660;37.758;2023-02-13T04:17:12;9.93;;;8.13;;
75984;SDS011;65033;44.660;37.758;2023-02-13T04:18:19;9.38;;;7.53;;
75984;SDS011;65033;44.660;37.758;2023-02-13T04:19:25;9.85;;;7.95;;
75984;SDS011;65033;44.660;37.758;2023-02-13T04:20:30;9.82;;;8.15;;
75984;SDS011;65033;44.660;37.758;2023-02-13T04:21:33;10.93;;;8.60;;
75984;SDS011;65033;44.660;37.758;2023-02-13T04:22:40;12.05;;;8.32;;
75984;SDS011;65033;44.660;37.758;2023-02-13T04:23:44;12.48;;;8.70;;
75984;SDS011;65033;44.660;37.758;2023-02-13T04:24:49;11.38;;;8.85;;
75984;SDS011;65033;44.660;37.758;2023-02-13T04:25:53;11.63;;;9.40;;
75984;SDS011;65033;44.660;37.758;2023-02-13T04:26:58;11.85;;;8.70;;
75984;SDS011;65033;44.660;37.758;2023-02-13T04:28:01;12.95;;;10.20;;
75984;SDS011;65033;44.660;37.758;2023-02-13T04:29:04;10.63;;;8.88;;
75984;SDS011;65033;44.660;37.758;2023-02-13T04:30:08;11.75;;;9.57;;
75984;SDS011;65033;44.660;37.758;2023-02-13T04:31:12;11.15;;;8.98;;
75984;SDS011;65033;44.660;37.758;2023-02-13T04:32:16;12.02;;;8.80;;
75984;SDS011;65033;44.660;37.758;2023-02-13T04:33:19;11.38;;;8.65;;
75984;SDS011;65033;44.660;37.758;2023-02-13T04:34:22;11.05;;;8.82;;
75984;SDS011;65033;44.660;37.758;2023-02-13T04:35:25;10.52;;;8.48;;
75984;SDS011;65033;44.660;37.758;2023-02-13T04:36:29;12.93;;;9.85;;
75984;SDS011;65033;44.660;37.758;2023-02-13T04:37:32;12.15;;;9.40;;
75984;SDS011;65033;44.660;37.758;2023-02-13T04:38:35;10.98;;;9.23;;
75984;SDS011;65033;44.660;37.758;2023-02-13T04:39:38;12.00;;;9.18;;
75984;SDS011;65033;44.660;37.758;2023-02-13T04:40:43;12.05;;;9.65;;
75984;SDS011;65033;44.660;37.758;2023-02-13T04:41:46;12.48;;;9.35;;
75984;SDS011;65033;44.660;37.758;2023-02-13T04:42:49;11.23;;;8.93;;
75984;SDS011;65033;44.660;37.758;2023-02-13T04:43:53;12.65;;;8.90;;
75984;SDS011;65033;44.660;37.758;2023-02-13T04:44:56;12.43;;;8.80;;
75984;SDS011;65033;44.660;37.758;2023-02-13T04:45:59;16.02;;;8.25;;
75984;SDS011;65033;44.660;37.758;2023-02-13T04:47:02;11.85;;;8.77;;
75984;SDS011;65033;44.660;37.758;2023-02-13T04:48:05;13.90;;;9.30;;
75984;SDS011;65033;44.660;37.758;2023-02-13T04:49:09;15.85;;;8.88;;
75984;SDS011;65033;44.660;37.758;2023-02-13T04:50:12;14.38;;;8.88;;
75984;SDS011;65033;44.660;37.758;2023-02-13T04:51:15;12.43;;;9.20;;
75984;SDS011;65033;44.660;37.758;2023-02-13T04:52:18;14.25;;;8.40;;
75984;SDS011;65033;44.660;37.758;2023-02-13T04:53:21;16.27;;;8.82;;
75984;SDS011;65033;44.660;37.758;2023-02-13T04:54:25;12.65;;;8.48;;
75984;SDS011;65033;44.660;37.758;2023-02-13T04:55:28;12.50;;;8.82;;
75984;SDS011;65033;44.660;37.758;2023-02-13T04:56:33;16.60;;;8.50;;
75984;SDS011;65033;44.660;37.758;2023-02-13T04:57:36;11.43;;;8.32;;
75984;SDS011;65033;44.660;37.758;2023-02-13T04:58:39;12.02;;;8.07;;
75984;SDS011;65033;44.660;37.758;2023-02-13T04:59:43;11.93;;;9.18;;
75984;SDS011;65033;44.660;37.758;2023-02-13T05:00:47;12.05;;;8.25;;
75984;SDS011;65033;44.660;37.758;2023-02-13T05:01:51;12.85;;;7.72;;
75984;SDS011;65033;44.660;37.758;2023-02-13T05:02:59;12.98;;;8.10;;
75984;SDS011;65033;44.660;37.758;2023-02-13T05:04:05;11.07;;;7.75;;
75984;SDS011;65033;44.660;37.758;2023-02-13T05:05:08;13.60;;;8.07;;
75984;SDS011;65033;44.660;37.758;2023-02-13T05:06:11;9.40;;;7.43;;
75984;SDS011;65033;44.660;37.758;2023-02-13T05:07:15;16.42;;;12.68;;
75984;SDS011;65033;44.660;37.758;2023-02-13T05:08:18;19.75;;;13.10;;
75984;SDS011;65033;44.660;37.758;2023-02-13T05:09:21;18.20;;;12.60;;
75984;SDS011;65033;44.660;37.758;2023-02-13T05:10:25;13.88;;;11.63;;
75984;SDS011;65033;44.660;37.758;2023-02-13T05:11:28;12.65;;;10.07;;
75984;SDS011;65033;44.660;37.758;2023-02-13T05:12:33;14.15;;;8.88;;
75984;SDS011;65033;44.660;37.758;2023-02-13T05:13:36;11.80;;;8.90;;
75984;SDS011;65033;44.660;37.758;2023-02-13T05:14:39;12.68;;;9.02;;
75984;SDS011;65033;44.660;37.758;2023-02-13T05:15:43;11.32;;;9.57;;
75984;SDS011;65033;44.660;37.758;2023-02-13T05:16:46;11.80;;;9.10;;
75984;SDS011;65033;44.660;37.758;2023-02-13T05:17:51;12.30;;;9.98;;
75984;SDS011;65033;44.660;37.758;2023-02-13T05:18:54;16.35;;;10.10;;
75984;SDS011;65033;44.660;37.758;2023-02-13T05:19:57;17.38;;;10.35;;
75984;SDS011;65033;44.660;37.758;2023-02-13T05:21:01;12.05;;;10.25;;
75984;SDS011;65033;44.660;37.758;2023-02-13T05:22:22;15.45;;;10.60;;
75984;SDS011;65033;44.660;37.758;2023-02-13T05:23:45;12.20;;;9.55;;
75984;SDS011;65033;44.660;37.758;2023-02-13T05:24:48;12.40;;;10.43;;
75984;SDS011;65033;44.660;37.758;2023-02-13T05:25:52;12.45;;;10.40;;
75984;SDS011;65033;44.660;37.758;2023-02-13T05:26:55;15.20;;;10.32;;
75984;SDS011;65033;44.660;37.758;2023-02-13T05:28:00;12.85;;;10.68;;
75984;SDS011;65033;44.660;37.758;2023-02-13T05:29:03;12.52;;;10.48;;
75984;SDS011;65033;44.660;37.758;2023-02-13T05:30:22;16.17;;;10.77;;
75984;SDS011;65033;44.660;37.758;2023-02-13T05:31:25;14.38;;;10.60;;
75984;SDS011;65033;44.660;37.758;2023-02-13T05:32:29;21.42;;;17.80;;
75984;SDS011;65033;44.660;37.758;2023-02-13T05:33:32;26.25;;;20.25;;
75984;SDS011;65033;44.660;37.758;2023-02-13T05:34:35;23.10;;;18.25;;
75984;SDS011;65033;44.660;37.758;2023-02-13T05:35:38;18.88;;;16.17;;
75984;SDS011;65033;44.660;37.758;2023-02-13T05:36:41;18.45;;;15.10;;
75984;SDS011;65033;44.660;37.758;2023-02-13T05:37:45;18.63;;;14.38;;
75984;SDS011;65033;44.660;37.758;2023-02-13T05:38:48;16.42;;;13.85;;
75984;SDS011;65033;44.660;37.758;2023-02-13T05:39:51;17.50;;;14.27;;
75984;SDS011;65033;44.660;37.758;2023-02-13T05:40:54;16.42;;;13.40;;
75984;SDS011;65033;44.660;37.758;2023-02-13T05:42:00;17.42;;;13.85;;
75984;SDS011;65033;44.660;37.758;2023-02-13T05:43:07;17.10;;;14.00;;
75984;SDS011;65033;44.660;37.758;2023-02-13T05:44:10;17.45;;;13.70;;
75984;SDS011;65033;44.660;37.758;2023-02-13T05:45:14;18.30;;;13.93;;
75984;SDS011;65033;44.660;37.758;2023-02-13T05:46:18;17.15;;;14.40;;
75984;SDS011;65033;44.660;37.758;2023-02-13T05:47:21;16.42;;;13.43;;
75984;SDS011;65033;44.660;37.758;2023-02-13T05:48:24;19.45;;;14.05;;
75984;SDS011;65033;44.660;37.758;2023-02-13T05:49:27;17.27;;;13.93;;
75984;SDS011;65033;44.660;37.758;2023-02-13T05:50:31;17.70;;;13.70;;
75984;SDS011;65033;44.660;37.758;2023-02-13T05:51:34;17.77;;;13.93;;
75984;SDS011;65033;44.660;37.758;2023-02-13T05:52:37;16.15;;;13.32;;
75984;SDS011;65033;44.660;37.758;2023-02-13T05:53:40;16.80;;;13.48;;
75984;SDS011;65033;44.660;37.758;2023-02-13T05:54:43;16.30;;;13.65;;
75984;SDS011;65033;44.660;37.758;2023-02-13T05:55:47;18.02;;;13.60;;
75984;SDS011;65033;44.660;37.758;2023-02-13T05:56:52;15.25;;;12.68;;
75984;SDS011;65033;44.660;37.758;2023-02-13T05:57:55;14.88;;;12.95;;
75984;SDS011;65033;44.660;37.758;2023-02-13T05:59:00;17.88;;;13.85;;
75984;SDS011;65033;44.660;37.758;2023-02-13T06:00:04;14.18;;;12.68;;
75984;SDS011;65033;44.660;37.758;2023-02-13T06:01:09;16.38;;;13.30;;
75984;SDS011;65033;44.660;37.758;2023-02-13T06:02:13;16.02;;;13.18;;
75984;SDS011;65033;44.660;37.758;2023-02-13T06:03:16;16.73;;;12.27;;
75984;SDS011;65033;44.660;37.758;2023-02-13T06:04:19;14.70;;;12.57;;
75984;SDS011;65033;44.660;37.758;2023-02-13T06:05:23;15.07;;;12.80;;
75984;SDS011;65033;44.660;37.758;2023-02-13T06:06:26;15.65;;;13.18;;
75984;SDS011;65033;44.660;37.758;2023-02-13T06:07:29;16.20;;;12.73;;
75984;SDS011;65033;44.660;37.758;2023-02-13T06:08:33;13.57;;;11.80;;
75984;SDS011;65033;44.660;37.758;2023-02-13T06:09:36;15.73;;;11.88;;
75984;SDS011;65033;44.660;37.758;2023-02-13T06:10:39;13.00;;;11.38;;
75984;SDS011;65033;44.660;37.758;2023-02-13T06:11:45;13.57;;;11.93;;
75984;SDS011;65033;44.660;37.758;2023-02-13T06:12:48;15.18;;;12.38;;
75984;SDS011;65033;44.660;37.758;2023-02-13T06:13:51;15.77;;;11.95;;
75984;SDS011;65033;44.660;37.758;2023-02-13T06:14:56;16.42;;;12.32;;
75984;SDS011;65033;44.660;37.758;2023-02-13T06:15:59;13.68;;;12.18;;
75984;SDS011;65033;44.660;37.758;2023-02-13T06:17:02;14.73;;;11.48;;
75984;SDS011;65033;44.660;37.758;2023-02-13T06:18:05;14.90;;;11.25;;
75984;SDS011;65033;44.660;37.758;2023-02-13T06:19:09;15.63;;;11.10;;
75984;SDS011;65033;44.660;37.758;2023-02-13T06:20:12;14.07;;;12.10;;
75984;SDS011;65033;44.660;37.758;2023-02-13T06:21:15;14.35;;;11.85;;
75984;SDS011;65033;44.660;37.758;2023-02-13T06:22:19;15.35;;;12.25;;
75984;SDS011;65033;44.660;37.758;2023-02-13T06:23:22;14.77;;;12.55;;
75984;SDS011;65033;44.660;37.758;2023-02-13T06:24:25;15.82;;;13.18;;
75984;SDS011;65033;44.660;37.758;2023-02-13T06:25:28;14.90;;;12.27;;
75984;SDS011;65033;44.660;37.758;2023-02-13T06:26:31;15.23;;;12.68;;
75984;SDS011;65033;44.660;37.758;2023-02-13T06:27:35;14.75;;;12.60;;
75984;SDS011;65033;44.660;37.758;2023-02-13T06:28:38;12.88;;;11.57;;
75984;SDS011;65033;44.660;37.758;2023-02-13T06:29:41;14.35;;;12.13;;
75984;SDS011;65033;44.660;37.758;2023-02-13T06:30:46;13.50;;;11.93;;
75984;SDS011;65033;44.660;37.758;2023-02-13T06:31:50;14.18;;;12.05;;
75984;SDS011;65033;44.660;37.758;2023-02-13T06:32:53;13.73;;;11.68;;
75984;SDS011;65033;44.660;37.758;2023-02-13T06:33:56;13.10;;;11.18;;
75984;SDS011;65033;44.660;37.758;2023-02-13T06:35:00;14.88;;;11.48;;
75984;SDS011;65033;44.660;37.758;2023-02-13T06:36:06;13.52;;;12.00;;
75984;SDS011;65033;44.660;37.758;2023-02-13T06:37:09;14.00;;;12.18;;
75984;SDS011;65033;44.660;37.758;2023-02-13T06:38:13;14.13;;;12.52;;
75984;SDS011;65033;44.660;37.758;2023-02-13T06:39:16;13.02;;;11.30;;
75984;SDS011;65033;44.660;37.758;2023-02-13T06:40:19;12.23;;;10.95;;
75984;SDS011;65033;44.660;37.758;2023-02-13T06:41:23;12.82;;;11.43;;
75984;SDS011;65033;44.660;37.758;2023-02-13T06:42:26;13.63;;;11.35;;
75984;SDS011;65033;44.660;37.758;2023-02-13T06:43:29;13.98;;;11.35;;
75984;SDS011;65033;44.660;37.758;2023-02-13T06:44:33;12.13;;;10.43;;